Time;durP1;ratioP1;P1;durP2;ratioP2;P2;SDS_P1;SDS_P2;PMS_P1;PMS_P2;Temp;Humidity;BMP_temperature;BMP_pressure;BME280_temperature;BME280_humidity;BME280_pressure;Samples;Min_cycle;Max_cycle;Signal;HPM_P1;HPM_P2
2022/08/12 00:45:07;;;;;;;3.80;1.73;;;;;;;21.20;49.26;100364.28;4963291;28;20962;-80
2022/08/12 00:47:34;;;;;;;0.93;0.93;;;;;;;21.05;50.36;100372.63;4961664;28;20495;-79
2022/08/12 00:50:01;;;;;;;1.53;1.33;;;;;;;20.86;51.13;100362.25;4981885;28;20469;-79
2022/08/12 00:52:28;;;;;;;2.07;1.97;;;;;;;20.65;52.10;100364.59;4980025;28;20545;-79
2022/08/12 00:54:57;;;;;;;1.20;1.10;;;;;;;20.65;51.41;100370.88;4963742;28;20935;-80
2022/08/12 00:57:29;;;;;;;2.50;1.97;;;;;;;20.58;52.05;100369.59;4971358;28;20462;-79
2022/08/12 01:00:01;;;;;;;1.60;1.17;;;;;;;20.54;52.28;100364.47;4964005;28;20459;-79
2022/08/12 01:02:36;;;;;;;4.20;1.97;;;;;;;20.17;53.27;100376.91;4962061;28;20959;-79
2022/08/12 01:13:32;;;;;;;0.83;0.60;;;;;;;19.83;54.44;100373.72;4962415;28;20467;-75
2022/08/12 01:16:02;;;;;;;1.47;1.37;;;;;;;19.90;53.82;100371.50;4967628;28;20451;-77
2022/08/12 01:18:35;;;;;;;1.77;1.13;;;;;;;20.15;53.76;100379.69;4967706;28;20441;-77
2022/08/12 01:21:07;;;;;;;1.23;1.13;;;;;;;19.95;53.80;100375.59;4964245;28;20499;-76
2022/08/12 01:24:05;;;;;;;1.43;1.33;;;;;;;19.73;54.22;100376.13;4961854;28;20960;-77
2022/08/12 01:26:53;;;;;;;1.63;1.53;;;;;;;19.82;54.09;100377.38;4961250;28;20450;-76
2022/08/12 01:29:26;;;;;;;4.17;1.37;;;;;;;19.49;54.69;100359.69;4973699;28;20470;-77
2022/08/12 01:31:59;;;;;;;9.70;1.57;;;;;;;19.63;54.56;100385.81;4960724;28;20513;-77
2022/08/12 01:34:30;;;;;;;22.93;2.00;;;;;;;19.40;55.09;100387.25;4977599;28;20473;-77
2022/08/12 01:37:04;;;;;;;4.83;1.07;;;;;;;19.36;55.53;100379.47;4966038;28;20446;-77
2022/08/12 01:39:52;;;;;;;1.10;0.60;;;;;;;19.26;55.38;100387.25;4961476;28;20464;-77
2022/08/12 01:42:47;;;;;;;2.63;1.43;;;;;;;19.08;56.42;100394.66;4961823;28;20451;-77
2022/08/12 01:45:16;;;;;;;15.40;1.07;;;;;;;19.03;55.64;100396.75;4963275;28;20457;-77
2022/08/12 01:48:02;;;;;;;5.10;1.33;;;;;;;18.90;56.28;100385.00;4958946;28;20527;-77
2022/08/12 01:50:53;;;;;;;1.97;1.43;;;;;;;18.97;56.80;100391.75;4966241;28;20995;-77
2022/08/12 01:53:48;;;;;;;1.10;1.00;;;;;;;19.25;56.22;100385.53;4955086;28;20551;-78
2022/08/12 01:56:20;;;;;;;1.30;1.00;;;;;;;19.00;56.17;100402.34;4972321;28;20537;-78
2022/08/12 02:01:38;;;;;;;3.13;1.50;;;;;;;19.21;56.30;100394.78;4964480;28;20454;-78
2022/08/12 02:14:03;;;;;;;5.90;1.13;;;;;;;18.56;58.66;100403.19;4966561;28;20454;-77
2022/08/12 02:16:29;;;;;;;1.00;0.93;;;;;;;18.37;59.35;100401.69;4971298;28;20466;-78
2022/08/12 02:19:24;;;;;;;1.73;1.30;;;;;;;18.48;58.08;100386.63;4954703;28;20503;-78
2022/08/12 02:22:00;;;;;;;1.23;0.93;;;;;;;18.17;59.24;100398.31;4974056;28;20446;-77
2022/08/12 02:24:33;;;;;;;1.13;1.03;;;;;;;18.32;59.05;100401.94;4968249;28;20470;-78
2022/08/12 02:27:00;;;;;;;1.13;1.03;;;;;;;18.37;59.04;100401.69;4974296;28;20549;-77
2022/08/12 02:29:27;;;;;;;8.40;2.30;;;;;;;18.18;59.46;100402.75;4967591;28;20482;-77
2022/08/12 02:31:56;;;;;;;1.30;1.13;;;;;;;18.23;59.08;100402.50;4972356;28;20449;-78
2022/08/12 02:34:23;;;;;;;8.33;2.03;;;;;;;18.01;59.93;100379.53;4969005;28;20464;-77
2022/08/12 02:36:53;;;;;;;1.90;0.90;;;;;;;18.15;60.01;100394.00;4964883;28;20546;-77
2022/08/12 02:39:23;;;;;;;1.00;0.80;;;;;;;18.20;59.74;100397.28;4965651;28;20474;-77
2022/08/12 02:41:53;;;;;;;2.17;1.97;;;;;;;18.09;59.69;100375.50;4971860;28;20459;-77
2022/08/12 02:44:22;;;;;;;1.93;1.27;;;;;;;18.13;59.78;100393.22;4982761;28;20468;-77
2022/08/12 02:46:53;;;;;;;2.10;1.50;;;;;;;18.16;60.15;100395.72;4966641;28;20939;-78
2022/08/12 02:49:33;;;;;;;0.83;0.77;;;;;;;18.25;59.64;100395.22;4965776;28;20537;-77
2022/08/12 02:52:00;;;;;;;1.20;1.07;;;;;;;18.17;60.44;100403.72;4985773;28;20848;-77
2022/08/12 02:54:26;;;;;;;1.10;1.00;;;;;;;17.72;61.43;100408.09;4965003;28;20454;-77
2022/08/12 02:56:53;;;;;;;1.60;0.90;;;;;;;18.03;60.58;100399.13;4976386;28;20474;-77
2022/08/12 02:59:26;;;;;;;1.40;1.30;;;;;;;17.88;60.92;100400.00;4972615;28;20474;-77
2022/08/12 03:01:57;;;;;;;1.07;0.80;;;;;;;17.82;61.37;100399.47;4969960;28;20450;-78
2022/08/12 03:04:29;;;;;;;4.83;1.30;;;;;;;18.06;60.41;100396.25;4965083;28;20835;-78
2022/08/12 03:07:13;;;;;;;1.20;1.10;;;;;;;17.87;60.60;100395.59;4968475;28;20455;-77
2022/08/12 03:09:49;;;;;;;1.77;1.67;;;;;;;17.67;61.54;100390.41;4965239;28;20474;-77
2022/08/12 03:12:34;;;;;;;1.37;1.27;;;;;;;17.72;61.14;100404.53;4964280;28;20458;-77
2022/08/12 03:15:11;;;;;;;0.97;0.87;;;;;;;17.76;61.54;100406.09;4963190;28;20479;-77
2022/08/12 03:18:01;;;;;;;0.93;0.93;;;;;;;17.85;61.29;100402.88;4976260;28;20452;-77
2022/08/12 03:20:47;;;;;;;2.13;1.77;;;;;;;17.74;62.33;100408.00;4963385;28;20453;-78
2022/08/12 03:23:15;;;;;;;0.90;0.80;;;;;;;17.54;62.30;100411.75;4962689;28;20469;-77
2022/08/12 03:26:00;;;;;;;0.70;0.70;;;;;;;17.23;63.50;100407.19;4968633;28;20451;-77
2022/08/12 03:28:52;;;;;;;1.60;1.50;;;;;;;17.36;62.88;100413.63;4970621;28;20872;-78
2022/08/12 03:31:21;;;;;;;1.03;0.93;;;;;;;17.43;62.25;100408.81;4969970;28;20439;-80
2022/08/12 03:33:49;;;;;;;1.10;1.00;;;;;;;17.18;63.32;100411.94;4966399;28;20538;-82
2022/08/12 03:36:32;;;;;;;1.20;1.10;;;;;;;17.00;63.82;100408.44;4977855;28;20462;-82
2022/08/12 03:41:58;;;;;;;1.30;1.20;;;;;;;17.01;64.40;100422.75;4968695;28;20463;-82
2022/08/12 04:01:39;;;;;;;0.70;0.70;;;;;;;16.71;66.07;100428.75;5013397;23;20895;-57
2022/08/12 04:04:09;;;;;;;1.27;1.17;;;;;;;16.69;66.16;100427.94;4981725;28;20473;-58
2022/08/12 04:06:43;;;;;;;2.03;1.30;;;;;;;16.58;66.24;100427.59;4984526;28;20458;-56
2022/08/12 04:09:11;;;;;;;1.33;0.83;;;;;;;16.61;66.30;100429.28;4988707;28;20495;-56
2022/08/12 04:14:26;;;;;;;1.23;1.13;;;;;;;16.66;66.02;100424.53;4996166;23;20588;-48
2022/08/12 04:16:55;;;;;;;1.40;1.30;;;;;;;16.80;65.59;100436.31;4992238;28;20779;-48
2022/08/12 04:19:23;;;;;;;24.43;1.80;;;;;;;16.88;65.85;100441.31;4983322;28;20867;-49
2022/08/12 04:21:51;;;;;;;1.83;1.40;;;;;;;16.81;65.87;100443.44;4982178;28;20449;-48
2022/08/12 04:24:33;;;;;;;1.43;1.33;;;;;;;16.71;67.08;100447.53;4984222;28;20548;-49
2022/08/12 04:27:01;;;;;;;1.73;1.37;;;;;;;17.42;63.83;100440.19;4983241;28;20526;-49
2022/08/12 04:29:27;;;;;;;4.57;0.80;;;;;;;17.09;65.08;100442.84;4985527;28;21056;-48
2022/08/12 04:32:14;;;;;;;1.63;1.53;;;;;;;16.94;65.71;100446.34;4984674;28;20450;-49
2022/08/12 04:34:42;;;;;;;3.30;1.70;;;;;;;17.05;65.44;100443.09;4983992;28;20471;-50
2022/08/12 04:37:10;;;;;;;11.93;1.57;;;;;;;17.15;64.86;100439.00;4984039;28;20438;-48
2022/08/12 04:39:38;;;;;;;1.67;1.03;;;;;;;17.00;65.81;100434.44;4981798;28;20442;-49
2022/08/12 04:42:05;;;;;;;0.80;0.80;;;;;;;17.01;65.67;100441.53;4982722;28;20454;-50
2022/08/12 04:44:31;;;;;;;1.50;1.40;;;;;;;16.86;66.00;100443.22;4983797;28;20474;-48
2022/08/12 04:46:58;;;;;;;7.50;1.23;;;;;;;17.03;65.55;100437.81;4983595;28;20939;-49
2022/08/12 04:49:26;;;;;;;2.60;1.70;;;;;;;17.00;66.25;100439.81;4986041;28;20971;-49
2022/08/12 04:51:55;;;;;;;9.50;1.30;;;;;;;17.23;65.82;100438.56;4982941;28;21023;-49
2022/08/12 04:54:26;;;;;;;2.40;1.60;;;;;;;17.20;65.52;100446.78;4980998;28;20514;-49
2022/08/12 04:56:52;;;;;;;1.73;1.63;;;;;;;17.42;64.73;100448.25;4983643;28;20793;-48
2022/08/12 04:59:34;;;;;;;1.53;1.43;;;;;;;17.70;64.16;100439.56;4981642;28;20439;-48
2022/08/12 05:02:12;;;;;;;3.23;0.87;;;;;;;18.18;62.21;100444.94;4982162;28;20449;-49
2022/08/12 05:04:47;;;;;;;2.60;1.10;;;;;;;18.84;60.59;100450.91;4985169;28;20460;-49
2022/08/12 05:07:14;;;;;;;1.90;1.80;;;;;;;19.49;58.12;100456.78;4984507;28;20442;-51
2022/08/12 05:09:40;;;;;;;6.40;1.10;;;;;;;19.86;56.36;100451.75;4983930;28;20857;-48
2022/08/12 05:12:33;;;;;;;5.67;1.73;;;;;;;20.23;55.57;100457.47;4983578;28;20434;-49
2022/08/12 05:15:00;;;;;;;0.97;0.87;;;;;;;20.76;53.72;100455.72;4982352;28;20473;-49
2022/08/12 05:17:26;;;;;;;10.10;2.13;;;;;;;21.00;52.68;100463.03;4982074;28;20481;-49
2022/08/12 05:19:53;;;;;;;1.50;1.40;;;;;;;21.33;52.08;100464.38;4982486;28;20444;-49
2022/08/12 05:22:22;;;;;;;7.70;1.87;;;;;;;21.57;51.55;100461.78;4981932;28;20512;-49
2022/08/12 05:24:49;;;;;;;23.23;1.80;;;;;;;21.39;51.27;100465.81;4989523;28;20470;-50
2022/08/12 05:27:16;;;;;;;1.83;1.73;;;;;;;21.64;51.56;100473.88;4978381;28;20819;-48
2022/08/12 05:29:48;;;;;;;1.80;1.70;;;;;;;21.76;51.07;100474.84;4981646;28;20509;-49
2022/08/12 05:32:35;;;;;;;1.63;1.47;;;;;;;22.00;50.05;100472.19;4982115;28;20446;-49
2022/08/12 05:35:05;;;;;;;1.30;1.20;;;;;;;21.97;50.08;100469.72;4984282;28;20469;-48
2022/08/12 05:37:33;;;;;;;1.77;1.20;;;;;;;22.04;50.86;100471.84;4982867;28;20453;-48
2022/08/12 05:40:02;;;;;;;1.90;1.80;;;;;;;22.17;49.45;100467.28;4982405;28;20481;-49
2022/08/12 05:42:36;;;;;;;4.70;1.67;;;;;;;22.46;49.30;100470.53;4981415;28;20532;-51
2022/08/12 05:45:03;;;;;;;1.70;1.40;;;;;;;22.38;49.41;100472.13;4978003;28;20478;-48
2022/08/12 05:47:30;;;;;;;2.70;1.00;;;;;;;22.60;48.79;100474.91;4975558;28;20882;-49
2022/08/12 05:50:16;;;;;;;14.63;1.60;;;;;;;22.74;48.14;100474.72;4983482;28;20450;-48
2022/08/12 05:52:43;;;;;;;11.60;2.10;;;;;;;22.86;47.72;100472.09;4974937;28;20461;-48
2022/08/12 05:55:09;;;;;;;2.60;1.33;;;;;;;22.53;49.04;100472.81;4977413;28;20462;-48
2022/08/12 05:57:37;;;;;;;2.10;1.90;;;;;;;23.18;47.63;100470.50;4975071;28;20521;-48
2022/08/12 06:00:05;;;;;;;16.57;1.50;;;;;;;23.24;47.37;100472.72;4982088;28;20479;-48
2022/08/12 06:02:31;;;;;;;1.37;1.27;;;;;;;23.16;47.15;100474.28;4982688;28;20458;-49
2022/08/12 06:04:59;;;;;;;1.93;1.77;;;;;;;23.50;47.17;100476.09;4983795;28;20523;-48
2022/08/12 06:07:25;;;;;;;1.33;1.23;;;;;;;23.55;47.22;100478.41;4979621;28;20453;-49
2022/08/12 06:10:12;;;;;;;34.17;3.27;;;;;;;23.70;46.90;100481.78;4980025;28;20897;-48
2022/08/12 06:12:38;;;;;;;10.60;2.50;;;;;;;23.98;46.33;100486.72;4986065;28;20451;-49
2022/08/12 06:15:05;;;;;;;15.43;3.80;;;;;;;24.10;46.13;100479.44;4985995;28;20485;-49
2022/08/12 06:17:32;;;;;;;12.83;3.33;;;;;;;24.22;46.00;100482.00;4981114;28;20460;-49
2022/08/12 06:19:59;;;;;;;18.63;3.33;;;;;;;24.15;46.40;100477.22;4979486;28;20558;-49
2022/08/12 06:22:49;;;;;;;21.93;2.73;;;;;;;24.06;46.56;100478.81;4983038;28;20461;-49
2022/08/12 06:25:20;;;;;;;5.03;3.17;;;;;;;23.94;47.33;100475.25;4986448;28;20510;-49
2022/08/12 06:27:48;;;;;;;20.47;4.83;;;;;;;23.98;46.62;100477.72;4984780;28;20954;-49
2022/08/12 06:30:35;;;;;;;3.20;2.37;;;;;;;24.10;46.35;100471.28;4969219;28;20485;-49
2022/08/12 06:33:07;;;;;;;4.30;2.90;;;;;;;24.18;46.68;100483.25;4979649;28;20506;-49
2022/08/12 06:35:48;;;;;;;1.37;1.20;;;;;;;24.24;46.63;100468.28;4986429;28;20541;-51
2022/08/12 06:38:18;;;;;;;10.20;1.63;;;;;;;24.15;47.40;100475.34;4985959;28;20533;-50
2022/08/12 06:43:33;;;;;;;1.50;1.40;;;;;;;24.26;48.38;100470.88;4979952;28;20472;-49
2022/08/12 06:46:21;;;;;;;3.50;2.00;;;;;;;24.56;47.39;100462.06;4982277;28;20450;-49
2022/08/12 06:48:49;;;;;;;1.27;1.17;;;;;;;24.83;44.58;100462.44;4979794;28;20898;-49
2022/08/12 06:51:17;;;;;;;1.93;1.00;;;;;;;24.90;43.55;100462.78;4990504;28;20453;-49
2022/08/12 06:53:44;;;;;;;1.00;1.00;;;;;;;24.88;43.18;100462.03;4986292;28;20450;-49
2022/08/12 06:56:10;;;;;;;0.80;0.70;;;;;;;24.94;42.48;100450.63;4976310;28;20489;-48
2022/08/12 06:58:38;;;;;;;3.10;2.13;;;;;;;24.80;43.31;100458.09;4984654;28;20445;-51
2022/08/12 07:01:06;;;;;;;0.67;0.67;;;;;;;25.00;43.16;100456.44;4979472;28;20449;-51
2022/08/12 07:03:32;;;;;;;5.23;1.13;;;;;;;24.99;42.76;100456.56;4980467;28;20513;-52
2022/08/12 07:06:04;;;;;;;1.33;1.23;;;;;;;24.99;42.63;100457.41;4986330;28;20936;-49
2022/08/12 07:08:33;;;;;;;13.47;0.90;;;;;;;24.83;43.04;100456.16;4981190;28;20489;-49
2022/08/12 07:11:02;;;;;;;1.67;1.50;;;;;;;24.92;42.49;100458.06;4970151;28;20460;-49
2022/08/12 07:13:37;;;;;;;1.33;1.23;;;;;;;25.11;42.87;100463.69;4982832;28;20450;-50
2022/08/12 07:16:25;;;;;;;1.10;1.00;;;;;;;25.29;42.05;100455.78;4985897;28;20455;-51
2022/08/12 07:18:54;;;;;;;0.70;0.63;;;;;;;25.30;42.05;100468.38;4989165;28;20468;-50
2022/08/12 07:21:21;;;;;;;1.00;0.90;;;;;;;25.06;42.08;100477.66;4982073;28;20452;-50
2022/08/12 07:23:49;;;;;;;1.33;1.23;;;;;;;25.11;42.54;100471.84;4975445;28;20463;-50
2022/08/12 07:26:16;;;;;;;1.53;0.70;;;;;;;25.21;41.95;100474.63;4988541;28;20449;-51
2022/08/12 07:28:44;;;;;;;9.53;1.10;;;;;;;25.37;41.63;100469.59;4982514;28;20607;-50
2022/08/12 07:31:11;;;;;;;2.30;1.00;;;;;;;25.42;41.48;100470.03;4985392;28;20443;-49
2022/08/12 07:33:43;;;;;;;1.17;1.03;;;;;;;25.35;41.53;100469.69;4980801;28;20513;-50
2022/08/12 07:36:12;;;;;;;1.33;1.07;;;;;;;25.45;41.40;100485.22;4980532;28;20457;-51
2022/08/12 07:38:45;;;;;;;1.00;0.87;;;;;;;25.46;41.53;100466.03;4979170;28;20450;-51
2022/08/12 07:41:20;;;;;;;0.80;0.63;;;;;;;25.48;40.78;100469.50;4983444;28;21269;-50
2022/08/12 07:43:55;;;;;;;1.20;1.10;;;;;;;25.67;40.82;100457.84;4985020;28;20479;-51
2022/08/12 07:46:35;;;;;;;0.90;0.90;;;;;;;25.92;40.38;100462.00;4981607;28;20844;-51
2022/08/12 07:49:05;;;;;;;1.23;1.00;;;;;;;25.81;40.21;100467.53;4966680;28;20858;-50
2022/08/12 07:51:32;;;;;;;8.83;1.40;;;;;;;25.87;39.81;100462.41;4980553;28;20460;-51
2022/08/12 07:54:00;;;;;;;1.63;1.20;;;;;;;25.89;40.15;100452.22;4977533;28;20470;-52
2022/08/12 07:56:29;;;;;;;0.80;0.80;;;;;;;26.25;39.73;100460.78;4987895;28;21026;-51
2022/08/12 07:58:57;;;;;;;2.03;1.07;;;;;;;26.26;39.12;100457.06;4988217;28;20453;-50
2022/08/12 08:01:24;;;;;;;1.57;1.00;;;;;;;26.36;39.64;100462.56;4963883;28;20465;-50
2022/08/12 08:06:48;;;;;;;1.37;0.97;;;;;;;26.55;38.96;100465.31;4944916;28;20949;-50
2022/08/12 08:09:17;;;;;;;3.93;0.63;;;;;;;26.67;38.58;100457.88;4987236;28;21028;-50
2022/08/12 08:14:30;;;;;;;1.70;0.77;;;;;;;27.02;38.87;100455.44;4986602;28;20480;-50
2022/08/12 08:16:58;;;;;;;2.53;1.10;;;;;;;26.97;38.18;100463.16;4987771;28;20544;-50
2022/08/12 08:19:27;;;;;;;2.40;0.93;;;;;;;27.03;37.99;100461.78;4982219;28;21013;-51
2022/08/12 08:21:57;;;;;;;7.07;1.07;;;;;;;27.19;37.63;100467.50;4978233;28;20473;-50
2022/08/12 08:24:26;;;;;;;1.33;1.23;;;;;;;27.29;37.51;100467.47;4985322;28;20469;-53
2022/08/12 08:26:55;;;;;;;1.00;1.00;;;;;;;27.04;37.59;100475.28;4981105;28;20454;-53
2022/08/12 08:29:23;;;;;;;21.93;1.57;;;;;;;26.81;38.24;100468.34;4971476;28;20491;-53
2022/08/12 08:31:56;;;;;;;1.13;1.03;;;;;;;27.14;37.86;100465.22;4982264;28;20878;-53
2022/08/12 08:34:25;;;;;;;8.80;0.90;;;;;;;27.13;37.38;100468.06;4967065;28;20470;-54
2022/08/12 08:37:14;;;;;;;0.80;0.70;;;;;;;27.35;38.18;100461.41;4971545;28;20447;-54
2022/08/12 08:39:42;;;;;;;1.03;0.77;;;;;;;27.25;36.72;100463.28;4986679;28;20450;-53
2022/08/12 08:44:56;;;;;;;1.30;1.20;;;;;;;27.45;37.25;100459.53;4980985;28;20473;-54
2022/08/12 08:47:24;;;;;;;1.17;0.90;;;;;;;27.81;36.46;100457.81;4969433;28;20455;-54
2022/08/12 08:49:51;;;;;;;4.00;0.80;;;;;;;27.77;37.15;100464.63;4993366;28;20485;-54
2022/08/12 08:52:22;;;;;;;1.27;1.00;;;;;;;27.80;36.29;100450.66;4990569;28;20438;-54
2022/08/12 08:55:09;;;;;;;0.80;0.73;;;;;;;27.67;36.31;100452.84;4972795;28;20500;-53
2022/08/12 08:58:02;;;;;;;1.40;1.30;;;;;;;27.94;36.33;100443.81;4980133;28;20482;-53
2022/08/12 09:00:29;;;;;;;0.90;0.60;;;;;;;27.98;35.46;100451.59;4980983;28;20537;-53
2022/08/12 09:02:56;;;;;;;1.07;0.73;;;;;;;27.76;35.22;100449.22;4981136;28;20915;-54
2022/08/12 09:05:24;;;;;;;0.80;0.80;;;;;;;28.00;35.86;100446.81;4987585;28;20477;-54
2022/08/12 09:07:51;;;;;;;0.97;0.87;;;;;;;28.09;35.63;100442.28;4981875;28;20454;-54
2022/08/12 09:10:37;;;;;;;0.83;0.70;;;;;;;28.18;34.20;100441.38;4980550;28;20492;-55
2022/08/12 09:13:33;;;;;;;0.97;0.90;;;;;;;28.02;34.70;100436.59;4982637;28;20928;-54
2022/08/12 09:16:20;;;;;;;1.80;0.70;;;;;;;27.95;34.91;100437.34;4974830;28;20450;-54
2022/08/12 09:18:48;;;;;;;0.70;0.50;;;;;;;28.07;35.25;100435.25;4964247;28;20537;-53
2022/08/12 09:21:18;;;;;;;12.33;2.30;;;;;;;28.07;34.27;100438.00;4985311;28;20450;-54
2022/08/12 09:23:45;;;;;;;0.90;0.60;;;;;;;28.26;34.53;100427.84;4980038;28;20450;-54
2022/08/12 09:26:30;;;;;;;0.97;0.87;;;;;;;28.34;33.62;100427.06;4979681;28;20450;-54
2022/08/12 09:28:59;;;;;;;9.10;0.70;;;;;;;28.46;32.73;100419.50;4980447;28;20496;-55
2022/08/12 09:31:26;;;;;;;4.07;0.80;;;;;;;28.63;32.73;100419.47;4979928;28;20450;-55
2022/08/12 09:34:13;;;;;;;1.20;1.10;;;;;;;28.21;33.36;100430.13;4982777;28;20982;-55
2022/08/12 09:36:58;;;;;;;0.83;0.70;;;;;;;28.67;32.34;100424.66;4987183;28;20450;-55
2022/08/12 09:39:43;;;;;;;0.97;0.97;;;;;;;28.38;31.89;100425.75;4979275;28;20525;-54
2022/08/12 09:45:35;;;;;;;0.93;0.70;;;;;;;28.01;32.44;100420.34;4983870;28;20477;-54
2022/08/12 09:48:22;;;;;;;0.83;0.67;;;;;;;28.29;32.66;100413.00;4979630;28;20544;-55
2022/08/12 09:50:51;;;;;;;1.97;0.60;;;;;;;28.53;32.46;100399.56;4991708;28;20560;-55
2022/08/12 09:53:25;;;;;;;0.83;0.70;;;;;;;28.68;32.56;100415.44;4978849;28;20913;-55
2022/08/12 09:56:04;;;;;;;0.90;0.80;;;;;;;28.40;32.04;100407.31;4986367;28;20509;-55
2022/08/12 09:58:52;;;;;;;1.23;1.13;;;;;;;28.38;31.84;100409.34;4978193;28;20451;-55
2022/08/12 10:01:26;;;;;;;0.83;0.83;;;;;;;28.60;32.57;100411.59;4984932;28;20501;-55
2022/08/12 10:04:13;;;;;;;7.00;0.97;;;;;;;28.27;32.75;100396.75;4986665;28;20466;-54
2022/08/12 10:06:44;;;;;;;1.17;1.07;;;;;;;28.74;32.27;100401.97;4984866;28;20808;-55
2022/08/12 10:09:19;;;;;;;2.47;0.93;;;;;;;28.76;31.59;100391.72;4978125;28;21032;-55
2022/08/12 10:14:40;;;;;;;0.80;0.60;;;;;;;29.00;31.10;100390.22;4997360;23;21081;-56
2022/08/12 10:17:21;;;;;;;1.33;0.93;;;;;;;28.69;30.94;100385.16;4991954;28;20464;-56
2022/08/12 10:19:50;;;;;;;0.97;0.70;;;;;;;28.63;32.01;100383.91;4981421;28;20439;-56
2022/08/12 10:22:19;;;;;;;0.70;0.67;;;;;;;29.16;31.67;100373.91;4992194;28;20453;-56
2022/08/12 10:30:56;;;;;;;1.83;0.60;;;;;;;29.04;31.64;100369.72;4983563;28;20535;-57
2022/08/12 10:33:25;;;;;;;1.10;0.90;;;;;;;29.26;31.31;100363.72;4984537;28;20446;-56
2022/08/12 10:35:58;;;;;;;5.03;0.67;;;;;;;29.09;30.84;100379.19;4986104;28;20504;-56
2022/08/12 10:38:25;;;;;;;0.60;0.60;;;;;;;29.36;30.95;100371.81;4979937;28;20528;-56
2022/08/12 10:44:14;;;;;;;0.80;0.70;;;;;;;29.36;31.08;100363.59;4995148;28;20477;-56
2022/08/12 10:46:46;;;;;;;6.03;0.70;;;;;;;29.12;30.52;100358.84;4983439;28;20453;-56
2022/08/12 10:49:15;;;;;;;2.50;1.67;;;;;;;29.01;30.93;100350.88;4995528;28;20457;-56
2022/08/12 10:52:06;;;;;;;7.90;0.93;;;;;;;29.11;31.13;100357.97;5003839;28;20453;-56
2022/08/12 10:54:54;;;;;;;0.70;0.63;;;;;;;29.43;31.31;100351.81;4984156;28;20476;-56
2022/08/12 10:57:25;;;;;;;0.70;0.50;;;;;;;30.01;30.67;100345.53;4992967;28;21000;-57
2022/08/12 11:00:13;;;;;;;1.10;1.00;;;;;;;29.88;30.07;100349.78;4985914;28;20442;-57
2022/08/12 11:03:00;;;;;;;0.90;0.90;;;;;;;29.59;30.49;100342.81;4989709;28;20469;-56
2022/08/12 11:05:47;;;;;;;0.70;0.60;;;;;;;29.60;29.79;100340.94;4989789;28;20473;-56
2022/08/12 11:08:36;;;;;;;0.83;0.77;;;;;;;29.68;29.94;100344.59;4988386;28;20992;-56
2022/08/12 11:11:10;;;;;;;0.70;0.60;;;;;;;29.42;30.22;100327.31;4988378;28;21010;-57
2022/08/12 11:13:40;;;;;;;1.80;0.70;;;;;;;29.64;29.40;100328.66;4977181;28;20457;-56
2022/08/12 11:16:16;;;;;;;1.03;0.93;;;;;;;29.76;28.94;100330.06;4987425;28;20528;-56
2022/08/12 11:18:49;;;;;;;0.83;0.67;;;;;;;29.58;28.77;100327.41;4989898;28;20479;-56
2022/08/12 11:21:21;;;;;;;0.73;0.70;;;;;;;29.66;28.44;100324.72;4983524;28;20528;-56
2022/08/12 11:24:07;;;;;;;0.87;0.60;;;;;;;29.40;29.56;100323.88;4985983;28;20446;-56
2022/08/12 11:26:54;;;;;;;2.03;0.80;;;;;;;29.81;29.46;100322.19;4982723;28;20444;-56
2022/08/12 11:29:26;;;;;;;10.20;1.23;;;;;;;29.71;29.34;100321.47;4986216;28;20457;-56
2022/08/12 11:32:13;;;;;;;1.47;0.70;;;;;;;30.23;29.57;100313.03;4989089;28;20924;-56
2022/08/12 11:34:40;;;;;;;1.30;1.00;;;;;;;29.97;29.17;100310.41;4988376;28;20465;-57
2022/08/12 11:37:20;;;;;;;0.70;0.60;;;;;;;29.76;30.17;100313.63;4987913;28;20490;-57
2022/08/12 11:39:52;;;;;;;0.93;0.50;;;;;;;30.06;29.10;100304.81;4987611;28;20442;-56
2022/08/12 11:42:35;;;;;;;9.63;0.90;;;;;;;30.15;29.50;100307.53;4983036;28;20467;-56
2022/08/12 11:45:12;;;;;;;1.50;1.10;;;;;;;30.15;29.21;100297.41;4983297;28;20991;-56
2022/08/12 11:47:42;;;;;;;0.60;0.50;;;;;;;30.11;28.78;100314.41;4991335;28;20448;-56
2022/08/12 11:50:08;;;;;;;1.10;0.67;;;;;;;29.94;28.98;100302.50;4987031;28;20496;-56
2022/08/12 11:52:37;;;;;;;0.63;0.53;;;;;;;29.96;28.85;100303.19;4987792;28;20457;-57
2022/08/12 11:55:23;;;;;;;1.70;1.27;;;;;;;29.88;28.76;100295.84;4983080;28;20896;-57
2022/08/12 11:57:52;;;;;;;5.70;1.00;;;;;;;30.20;28.31;100295.03;4990617;28;20454;-56
2022/08/12 12:00:39;;;;;;;1.40;0.60;;;;;;;29.92;28.34;100299.09;4984413;28;20442;-56
2022/08/12 12:03:26;;;;;;;5.50;0.60;;;;;;;29.96;28.32;100294.97;4974716;28;20461;-56
2022/08/12 12:06:13;;;;;;;2.80;0.67;;;;;;;29.85;27.97;100287.06;4974945;28;20470;-56
2022/08/12 12:08:43;;;;;;;1.10;0.80;;;;;;;29.97;28.73;100292.06;4976776;28;20446;-56
2022/08/12 12:11:17;;;;;;;1.63;0.90;;;;;;;30.03;27.96;100269.47;4987060;28;20909;-56
2022/08/12 12:13:44;;;;;;;0.80;0.70;;;;;;;30.43;27.81;100275.13;4994906;28;20508;-56
2022/08/12 12:16:31;;;;;;;0.90;0.90;;;;;;;30.22;28.21;100271.03;4983199;28;20966;-56
2022/08/12 12:19:05;;;;;;;0.73;0.60;;;;;;;30.24;27.67;100277.22;4988585;28;21010;-56
2022/08/12 12:21:31;;;;;;;2.47;0.90;;;;;;;30.12;27.94;100273.09;4988211;28;20449;-56
2022/08/12 12:24:14;;;;;;;2.60;0.87;;;;;;;30.30;27.71;100279.28;4991120;28;21033;-56
2022/08/12 12:26:47;;;;;;;1.10;0.60;;;;;;;30.20;26.99;100264.88;4986123;28;20451;-56
2022/08/12 12:29:28;;;;;;;0.83;0.73;;;;;;;30.15;27.46;100245.31;4986255;28;20532;-56
2022/08/12 12:32:14;;;;;;;0.70;0.60;;;;;;;30.50;27.00;100256.97;4982380;28;20492;-56
2022/08/12 12:34:41;;;;;;;1.20;1.10;;;;;;;30.70;27.62;100260.22;4979184;28;20592;-56
2022/08/12 12:37:27;;;;;;;0.80;0.60;;;;;;;30.78;27.22;100254.72;4994481;28;20450;-57
2022/08/12 12:40:14;;;;;;;0.70;0.60;;;;;;;30.55;26.25;100252.66;4981448;28;20441;-56
2022/08/12 12:42:40;;;;;;;9.20;1.33;;;;;;;30.64;26.53;100256.28;4991991;28;20442;-56
2022/08/12 12:45:28;;;;;;;0.70;0.60;;;;;;;31.14;26.87;100238.66;4983021;28;20474;-56
2022/08/12 12:48:04;;;;;;;1.03;0.77;;;;;;;31.07;26.19;100234.88;4987780;28;20541;-56
2022/08/12 12:50:31;;;;;;;0.60;0.60;;;;;;;31.28;26.67;100231.59;4996519;28;20583;-56
2022/08/12 12:53:02;;;;;;;4.53;0.73;;;;;;;30.87;26.27;100231.72;4989229;28;20474;-56
2022/08/12 12:55:34;;;;;;;1.60;1.13;;;;;;;30.40;26.61;100226.09;4986787;28;20469;-56
2022/08/12 12:58:03;;;;;;;1.47;1.47;;;;;;;30.80;26.65;100220.56;4992430;28;20557;-56
2022/08/12 13:00:31;;;;;;;2.40;0.80;;;;;;;30.84;26.16;100210.06;4980654;28;20473;-57
2022/08/12 13:02:59;;;;;;;0.83;0.70;;;;;;;30.70;26.44;100232.75;4986981;28;20489;-56
2022/08/12 13:05:31;;;;;;;0.60;0.40;;;;;;;30.27;26.08;100216.50;4986159;28;20469;-56
2022/08/12 13:08:25;;;;;;;1.40;0.70;;;;;;;30.40;26.41;100215.97;4984214;28;20456;-56
2022/08/12 13:11:02;;;;;;;1.10;1.00;;;;;;;30.92;26.50;100210.06;4981128;28;20492;-56
2022/08/12 13:13:31;;;;;;;0.70;0.50;;;;;;;31.06;26.15;100200.22;4993013;28;20463;-56
2022/08/12 13:16:22;;;;;;;0.73;0.60;;;;;;;30.98;26.06;100205.75;4984576;28;20485;-56
2022/08/12 13:18:50;;;;;;;0.70;0.60;;;;;;;31.20;26.40;100218.72;4980441;28;20449;-56
2022/08/12 13:21:17;;;;;;;0.80;0.60;;;;;;;31.17;26.44;100205.31;4982761;28;20951;-56
2022/08/12 13:24:02;;;;;;;0.87;0.70;;;;;;;31.17;25.45;100202.59;4979838;28;20454;-56
2022/08/12 13:26:38;;;;;;;0.90;0.80;;;;;;;30.98;26.38;100203.00;4980504;28;20454;-56
2022/08/12 13:29:05;;;;;;;0.77;0.60;;;;;;;31.13;25.95;100204.84;4984970;28;20473;-56
2022/08/12 13:31:37;;;;;;;1.23;1.10;;;;;;;31.08;25.73;100200.91;4986937;28;21015;-56
2022/08/12 13:34:23;;;;;;;0.70;0.40;;;;;;;30.58;26.02;100202.09;4985165;28;20481;-56
2022/08/12 13:37:03;;;;;;;0.67;0.50;;;;;;;30.83;25.53;100216.59;4986790;28;20454;-57
2022/08/12 13:39:35;;;;;;;4.70;0.90;;;;;;;30.64;26.11;100210.50;4986894;28;20452;-57
2022/08/12 13:42:01;;;;;;;6.63;0.70;;;;;;;30.88;25.60;100195.84;4981298;28;20961;-57
2022/08/12 13:44:29;;;;;;;1.00;0.83;;;;;;;31.00;25.80;100201.81;4992281;28;20478;-57
2022/08/12 13:46:55;;;;;;;0.60;0.50;;;;;;;31.53;25.46;100206.53;4981667;28;20454;-57
2022/08/12 13:49:25;;;;;;;7.77;0.70;;;;;;;31.07;25.23;100196.44;4983334;28;20985;-56